createdAt,value
2023-02-13T00:00:48.103Z,4.06
2023-02-13T00:01:49.665Z,4.08
2023-02-13T00:02:51.455Z,4.10
2023-02-13T00:03:53.006Z,3.99
2023-02-13T00:04:54.529Z,3.85
2023-02-13T00:05:56.210Z,3.81
2023-02-13T00:06:57.757Z,3.87
2023-02-13T00:07:59.195Z,3.85
2023-02-13T00:09:00.763Z,3.83
2023-02-13T00:10:02.314Z,3.84
2023-02-13T00:11:03.882Z,3.85
2023-02-13T00:12:06.865Z,3.82
2023-02-13T00:13:08.216Z,3.70
2023-02-13T00:14:09.684Z,3.63
2023-02-13T00:15:11.126Z,3.63
2023-02-13T00:16:12.796Z,3.61
2023-02-13T00:17:14.311Z,3.65
2023-02-13T00:18:15.742Z,3.67
2023-02-13T00:19:17.287Z,3.65
2023-02-13T00:20:18.946Z,3.67
2023-02-13T00:21:20.505Z,3.70
2023-02-13T00:22:22.094Z,3.66
2023-02-13T00:23:23.512Z,3.66
2023-02-13T00:24:25.447Z,3.64
2023-02-13T00:25:27.140Z,3.56
2023-02-13T00:26:28.695Z,3.54
2023-02-13T00:27:30.185Z,3.50
2023-02-13T00:28:31.663Z,3.47
2023-02-13T00:29:33.078Z,3.33
2023-02-13T00:30:34.850Z,3.33
2023-02-13T00:31:36.378Z,3.30
2023-02-13T00:32:38.017Z,3.34
2023-02-13T00:33:40.302Z,3.30
2023-02-13T00:34:44.019Z,3.36
2023-02-13T00:35:45.505Z,3.34
2023-02-13T00:36:47.274Z,3.22
2023-02-13T00:37:48.703Z,3.24
2023-02-13T00:38:50.655Z,3.21
2023-02-13T00:39:52.778Z,3.20
2023-02-13T00:40:54.190Z,3.23
2023-02-13T00:41:55.605Z,3.27
2023-02-13T00:42:57.288Z,3.32
2023-02-13T00:43:58.715Z,3.27
2023-02-13T00:45:00.133Z,3.16
2023-02-13T00:46:02.175Z,3.16
2023-02-13T00:47:03.676Z,3.21
2023-02-13T00:48:05.164Z,3.20
2023-02-13T00:49:06.737Z,3.14
2023-02-13T00:50:08.462Z,3.15
2023-02-13T00:51:10.420Z,3.07
2023-02-13T00:52:11.968Z,3.12
2023-02-13T00:53:14.060Z,3.19
2023-02-13T00:54:17.606Z,3.07
2023-02-13T00:55:19.085Z,3.04
2023-02-13T00:56:20.530Z,2.97
2023-02-13T00:57:22.089Z,2.91
2023-02-13T00:58:23.833Z,2.79
2023-02-13T00:59:25.326Z,2.70
2023-02-13T01:00:27.242Z,2.69
2023-02-13T01:01:28.809Z,2.71
2023-02-13T01:02:30.361Z,2.79
2023-02-13T01:03:31.934Z,2.75
2023-02-13T01:04:33.445Z,2.73
2023-02-13T01:05:34.892Z,2.69
2023-02-13T01:06:36.488Z,2.77
2023-02-13T01:07:37.989Z,2.77
2023-02-13T01:08:40.181Z,2.79
2023-02-13T01:09:41.632Z,2.79
2023-02-13T01:10:44.824Z,2.79
2023-02-13T01:11:46.309Z,2.77
2023-02-13T01:12:47.809Z,2.43
2023-02-13T01:13:49.306Z,2.44
2023-02-13T01:14:50.856Z,2.48
2023-02-13T01:15:52.338Z,2.59
2023-02-13T01:16:53.920Z,2.41
2023-02-13T01:17:57.512Z,2.41
2023-02-13T01:18:59.011Z,2.50
2023-02-13T01:20:00.429Z,2.56
2023-02-13T01:21:08.417Z,2.46
2023-02-13T01:22:09.876Z,2.34
2023-02-13T01:23:12.387Z,2.29
2023-02-13T01:24:13.821Z,2.29
2023-02-13T01:25:15.537Z,2.32
2023-02-13T01:26:20.441Z,2.42
2023-02-13T01:27:21.864Z,2.39
2023-02-13T01:28:23.331Z,2.39
2023-02-13T01:29:24.851Z,2.48
2023-02-13T01:30:26.368Z,2.47
2023-02-13T01:31:28.481Z,2.53
2023-02-13T01:32:29.973Z,2.60
2023-02-13T01:33:31.445Z,2.50
2023-02-13T01:34:33.816Z,2.56
2023-02-13T01:35:35.220Z,2.56
2023-02-13T01:36:36.969Z,2.58
2023-02-13T01:37:39.475Z,2.68
2023-02-13T01:38:41.776Z,2.61
2023-02-13T01:39:43.336Z,2.52
2023-02-13T01:40:54.151Z,2.48
2023-02-13T01:41:55.619Z,2.46
2023-02-13T01:42:57.268Z,2.43
2023-02-13T01:44:00.962Z,2.46
2023-02-13T01:45:18.426Z,2.51
2023-02-13T01:46:32.102Z,2.42
2023-02-13T01:47:49.335Z,2.36
2023-02-13T01:48:54.411Z,2.39
2023-02-13T01:50:04.821Z,2.33
2023-02-13T01:51:12.313Z,2.37
2023-02-13T01:52:16.266Z,2.33
2023-02-13T01:53:25.724Z,2.40
2023-02-13T01:54:33.101Z,2.47
2023-02-13T01:55:39.124Z,2.45
2023-02-13T01:56:48.587Z,2.44
2023-02-13T01:57:55.809Z,2.46
2023-02-13T01:59:02.821Z,2.48
2023-02-13T02:00:08.109Z,2.46
2023-02-13T02:01:10.062Z,2.38
2023-02-13T02:02:12.542Z,2.29
2023-02-13T02:03:19.125Z,2.26
2023-02-13T02:04:25.763Z,2.21
2023-02-13T02:05:31.034Z,2.26
2023-02-13T02:06:40.809Z,2.36
2023-02-13T02:07:42.738Z,2.39
2023-02-13T02:08:46.021Z,2.33
2023-02-13T02:09:48.403Z,2.23
2023-02-13T02:10:50.077Z,2.12
2023-02-13T02:11:59.741Z,2.03
2023-02-13T02:13:13.369Z,2.06
2023-02-13T02:14:14.837Z,2.15
2023-02-13T02:15:16.879Z,2.20
2023-02-13T02:16:18.335Z,2.22
2023-02-13T02:17:21.864Z,2.27
2023-02-13T02:18:24.368Z,2.26
2023-02-13T02:19:48.921Z,2.20
2023-02-13T02:21:08.852Z,2.16
2023-02-13T02:22:12.899Z,2.09
2023-02-13T02:23:37.220Z,1.95
2023-02-13T02:25:09.592Z,2.07
2023-02-13T02:26:41.516Z,2.14
2023-02-13T02:27:49.107Z,1.95
2023-02-13T02:29:24.342Z,1.99
2023-02-13T02:30:50.962Z,2.01
2023-02-13T02:32:03.495Z,1.85
2023-02-13T02:33:33.109Z,1.73
2023-02-13T02:34:49.204Z,1.83
2023-02-13T02:36:34.403Z,1.86
2023-02-13T02:37:38.925Z,2.00
2023-02-13T02:38:47.770Z,1.96
2023-02-13T02:40:11.163Z,1.86
2023-02-13T02:41:48.789Z,1.88
2023-02-13T02:43:23.908Z,1.84
2023-02-13T02:44:51.250Z,1.87
2023-02-13T02:46:30.486Z,1.89
2023-02-13T02:48:27.004Z,1.89
2023-02-13T02:49:49.628Z,1.65
2023-02-13T02:51:03.186Z,1.75
2023-02-13T02:52:20.639Z,1.81
2023-02-13T02:53:28.639Z,1.73
2023-02-13T02:55:01.696Z,1.73
2023-02-13T02:56:13.536Z,1.81
2023-02-13T02:57:20.148Z,1.79
2023-02-13T02:58:47.166Z,1.82
2023-02-13T03:00:07.640Z,1.86
2023-02-13T03:01:33.526Z,1.84
2023-02-13T03:02:54.030Z,1.81
2023-02-13T03:04:16.532Z,1.87
2023-02-13T03:05:45.365Z,1.76
2023-02-13T03:06:51.796Z,1.79
2023-02-13T03:07:53.262Z,1.77
2023-02-13T03:09:16.621Z,1.78
2023-02-13T03:10:47.300Z,1.78
2023-02-13T03:12:10.952Z,1.82
2023-02-13T03:13:34.594Z,1.75
2023-02-13T03:14:36.282Z,1.73
2023-02-13T03:16:00.245Z,1.71
2023-02-13T03:17:22.190Z,1.70
2023-02-13T03:18:43.032Z,1.73
2023-02-13T03:20:57.726Z,1.77
2023-02-13T03:22:20.998Z,1.70
2023-02-13T03:23:40.404Z,1.77
2023-02-13T03:24:51.108Z,1.79
2023-02-13T03:26:07.362Z,1.83
2023-02-13T03:27:49.746Z,1.77
2023-02-13T03:29:20.931Z,1.76
2023-02-13T03:30:50.830Z,1.75
2023-02-13T03:32:01.523Z,1.78
2023-02-13T03:33:41.057Z,1.81
2023-02-13T03:35:10.952Z,1.70
2023-02-13T03:36:48.653Z,1.71
2023-02-13T03:37:58.490Z,1.64
2023-02-13T03:39:20.722Z,1.65
2023-02-13T03:40:36.734Z,1.69
2023-02-13T03:41:42.577Z,1.68
2023-02-13T03:43:00.570Z,1.62
2023-02-13T03:44:18.579Z,1.56
2023-02-13T03:45:47.587Z,1.57
2023-02-13T03:46:53.397Z,1.60
2023-02-13T03:47:57.600Z,1.59
2023-02-13T03:49:20.313Z,1.53
2023-02-13T03:50:22.662Z,1.54
2023-02-13T03:51:49.312Z,1.48
2023-02-13T03:53:00.071Z,1.53
2023-02-13T03:54:08.465Z,1.58
2023-02-13T03:55:35.436Z,1.64
2023-02-13T03:56:59.292Z,1.67
2023-02-13T03:58:26.217Z,1.72
2023-02-13T03:59:33.859Z,1.53
2023-02-13T04:00:46.300Z,1.58
2023-02-13T04:02:01.306Z,1.59
2023-02-13T04:03:26.840Z,1.51
2023-02-13T04:04:46.454Z,1.56
2023-02-13T04:05:55.756Z,1.57
2023-02-13T04:07:02.517Z,1.54
2023-02-13T04:08:04.162Z,1.56
2023-02-13T04:09:05.703Z,1.54
2023-02-13T04:10:10.623Z,1.57
2023-02-13T04:11:21.886Z,1.66
2023-02-13T04:12:33.772Z,1.63
2023-02-13T04:13:43.737Z,1.58
2023-02-13T04:14:55.264Z,1.54
2023-02-13T04:16:05.592Z,1.50
2023-02-13T04:17:17.632Z,1.51
2023-02-13T04:18:27.251Z,1.48
2023-02-13T04:19:28.742Z,1.36
2023-02-13T04:20:32.235Z,1.38
2023-02-13T04:21:40.213Z,1.42
2023-02-13T04:22:43.746Z,1.40
2023-02-13T04:23:45.495Z,1.28
2023-02-13T04:24:47.310Z,1.33
2023-02-13T04:25:52.096Z,1.20
2023-02-13T04:26:55.514Z,1.24
2023-02-13T04:27:57.104Z,1.30
2023-02-13T04:28:58.551Z,1.38
2023-02-13T04:30:00.290Z,1.38
2023-02-13T04:31:02.296Z,1.40
2023-02-13T04:32:04.423Z,1.44
2023-02-13T04:33:05.980Z,1.44
2023-02-13T04:34:07.489Z,1.46
2023-02-13T04:35:11.517Z,1.45
2023-02-13T04:36:13.046Z,1.51
2023-02-13T04:37:14.519Z,1.50
2023-02-13T04:38:15.980Z,1.53
2023-02-13T04:39:17.485Z,1.44
2023-02-13T04:40:19.027Z,1.43
2023-02-13T04:41:20.497Z,1.12
2023-02-13T04:42:22.004Z,0.86
2023-02-13T04:43:23.617Z,0.69
2023-02-13T04:44:25.074Z,0.73
2023-02-13T04:45:26.946Z,0.84
2023-02-13T04:46:28.630Z,0.95
2023-02-13T04:47:30.100Z,1.07
2023-02-13T04:48:31.625Z,1.17
2023-02-13T04:49:33.103Z,1.28
2023-02-13T04:50:34.590Z,1.27
2023-02-13T04:51:36.128Z,1.32
2023-02-13T04:52:37.591Z,1.32
2023-02-13T04:53:39.064Z,1.25
2023-02-13T04:54:40.714Z,1.34
2023-02-13T04:55:42.188Z,1.34
2023-02-13T04:56:43.650Z,1.29
2023-02-13T04:57:45.107Z,1.38
2023-02-13T04:58:46.699Z,1.34
2023-02-13T04:59:48.169Z,1.35
2023-02-13T05:00:49.639Z,1.36
2023-02-13T05:01:51.268Z,1.46
2023-02-13T05:02:52.896Z,1.48
2023-02-13T05:03:54.387Z,1.43
2023-02-13T05:04:55.937Z,1.43
2023-02-13T05:05:57.419Z,1.42
2023-02-13T05:06:58.865Z,1.52
2023-02-13T05:08:00.461Z,1.52
2023-02-13T05:09:01.931Z,1.54
2023-02-13T05:10:03.574Z,1.41
2023-02-13T05:11:05.392Z,1.41
2023-02-13T05:12:07.068Z,1.43
2023-02-13T05:13:08.908Z,1.44
2023-02-13T05:14:11.149Z,1.38
2023-02-13T05:15:12.583Z,1.35
2023-02-13T05:16:14.375Z,1.37
2023-02-13T05:17:16.159Z,1.38
2023-02-13T05:18:17.619Z,1.45
2023-02-13T05:19:19.215Z,1.42
2023-02-13T05:20:20.957Z,1.37
2023-02-13T05:21:41.239Z,1.35
2023-02-13T05:23:05.047Z,1.39
2023-02-13T05:24:08.112Z,1.36
2023-02-13T05:25:09.512Z,1.38
2023-02-13T05:26:11.031Z,1.38
2023-02-13T05:27:12.500Z,1.45
2023-02-13T05:28:32.860Z,1.48
2023-02-13T05:29:35.560Z,1.58
2023-02-13T05:30:39.195Z,1.60
2023-02-13T05:31:40.803Z,1.49
2023-02-13T05:32:43.291Z,1.51
2023-02-13T05:33:44.802Z,1.49
2023-02-13T05:34:46.651Z,1.48
2023-02-13T05:35:48.089Z,1.47
2023-02-13T05:36:50.286Z,1.44
2023-02-13T05:37:51.717Z,1.46
2023-02-13T05:38:53.254Z,1.34
2023-02-13T05:39:54.714Z,1.26
2023-02-13T05:41:00.016Z,1.22
2023-02-13T05:42:01.621Z,1.10
2023-02-13T05:43:03.053Z,1.05
2023-02-13T05:44:05.044Z,1.05
2023-02-13T05:45:06.960Z,1.11
2023-02-13T05:46:09.979Z,1.14
2023-02-13T05:47:11.334Z,1.08
2023-02-13T05:48:12.777Z,1.18
2023-02-13T05:49:15.556Z,1.33
2023-02-13T05:50:17.266Z,1.39
2023-02-13T05:51:20.009Z,1.48
2023-02-13T05:52:21.456Z,1.51
2023-02-13T05:53:22.889Z,1.54
2023-02-13T05:54:24.488Z,1.56
2023-02-13T05:55:25.986Z,1.56
2023-02-13T05:56:27.522Z,1.49
2023-02-13T05:57:29.144Z,1.42
2023-02-13T05:58:30.665Z,1.46
2023-02-13T05:59:32.102Z,1.41
2023-02-13T06:00:33.514Z,1.40
2023-02-13T06:01:35.010Z,1.38
2023-02-13T06:02:37.209Z,1.40
2023-02-13T06:03:40.573Z,1.45
2023-02-13T06:04:42.315Z,1.38
2023-02-13T06:05:43.822Z,1.33
2023-02-13T06:06:45.568Z,1.26
2023-02-13T06:07:47.037Z,1.29
2023-02-13T06:08:48.548Z,1.33
2023-02-13T06:09:50.096Z,1.30
2023-02-13T06:10:52.518Z,1.26
2023-02-13T06:11:54.109Z,1.23
2023-02-13T06:12:55.585Z,1.25
2023-02-13T06:13:57.062Z,1.29
2023-02-13T06:14:58.522Z,1.35
2023-02-13T06:16:00.018Z,1.39
2023-02-13T06:17:01.742Z,1.32
2023-02-13T06:18:03.295Z,1.38
2023-02-13T06:19:04.882Z,1.31
2023-02-13T06:20:07.216Z,1.34
2023-02-13T06:21:09.080Z,1.25
2023-02-13T06:22:10.536Z,1.26
2023-02-13T06:23:12.257Z,1.23
2023-02-13T06:24:13.691Z,1.25
2023-02-13T06:25:15.298Z,1.25
2023-02-13T06:26:16.817Z,1.18
2023-02-13T06:27:18.284Z,1.18
2023-02-13T06:28:19.870Z,1.13
2023-02-13T06:29:21.375Z,1.06
2023-02-13T06:30:23.149Z,1.05
2023-02-13T06:31:24.758Z,0.96
2023-02-13T06:32:26.246Z,0.95
2023-02-13T06:33:27.940Z,1.07
2023-02-13T06:34:29.359Z,1.10
2023-02-13T06:35:30.800Z,1.10
2023-02-13T06:36:32.455Z,1.09
2023-02-13T06:37:34.050Z,1.10
2023-02-13T06:38:35.501Z,0.97
2023-02-13T06:39:36.948Z,0.97
2023-02-13T06:40:38.403Z,0.99
2023-02-13T06:41:39.971Z,1.03
2023-02-13T06:42:45.655Z,1.12
2023-02-13T06:43:47.203Z,1.19
2023-02-13T06:44:48.717Z,1.18
2023-02-13T06:45:51.985Z,1.15
2023-02-13T06:46:53.466Z,1.22
2023-02-13T06:47:55.075Z,1.19
2023-02-13T06:48:56.717Z,1.21
2023-02-13T06:49:58.148Z,1.24
2023-02-13T06:51:01.567Z,1.23
2023-02-13T06:52:03.102Z,1.20
2023-02-13T06:53:04.648Z,1.17
2023-02-13T06:54:06.115Z,1.27
2023-02-13T06:55:07.801Z,1.33
2023-02-13T06:56:11.232Z,1.39
2023-02-13T06:57:12.783Z,1.39
2023-02-13T06:58:14.221Z,1.44
2023-02-13T06:59:15.637Z,1.49
2023-02-13T07:00:18.334Z,1.41
2023-02-13T07:01:20.040Z,1.34
2023-02-13T07:02:21.702Z,1.30
2023-02-13T07:03:23.423Z,1.28
2023-02-13T07:04:25.127Z,1.24
2023-02-13T07:05:26.577Z,1.24
2023-02-13T07:06:28.064Z,1.28
2023-02-13T07:07:33.415Z,1.32
2023-02-13T07:08:34.913Z,1.38
2023-02-13T07:09:36.355Z,1.34
2023-02-13T07:10:38.903Z,1.32
2023-02-13T07:11:40.487Z,1.32
2023-02-13T07:12:42.145Z,1.38
2023-02-13T07:13:43.559Z,1.39
2023-02-13T07:14:45.019Z,1.29
2023-02-13T07:15:46.534Z,1.28
2023-02-13T07:16:48.060Z,1.22
2023-02-13T07:17:55.989Z,1.17
2023-02-13T07:18:57.415Z,1.09
2023-02-13T07:19:58.885Z,0.93
2023-02-13T07:21:00.368Z,0.99
2023-02-13T07:22:01.851Z,1.06
2023-02-13T07:23:06.436Z,1.08
2023-02-13T07:24:08.339Z,1.10
2023-02-13T07:25:09.863Z,1.06
2023-02-13T07:26:11.405Z,1.03
2023-02-13T07:27:12.815Z,1.11
2023-02-13T07:28:14.370Z,1.17
2023-02-13T07:29:16.070Z,1.18
2023-02-13T07:30:17.675Z,1.22
2023-02-13T07:31:19.267Z,1.18
2023-02-13T07:32:21.027Z,1.25
2023-02-13T07:33:22.820Z,1.28
2023-02-13T07:34:24.277Z,1.23
2023-02-13T07:35:25.837Z,1.17
2023-02-13T07:36:28.238Z,1.16
2023-02-13T07:37:31.509Z,1.22
2023-02-13T07:38:33.426Z,1.16
2023-02-13T07:39:34.918Z,1.25
2023-02-13T07:40:36.385Z,1.33
2023-02-13T07:41:37.847Z,1.33
2023-02-13T07:42:39.358Z,1.26
2023-02-13T07:43:40.948Z,1.18
2023-02-13T07:44:42.397Z,1.21
2023-02-13T07:45:43.868Z,1.20
2023-02-13T07:46:45.492Z,1.29
2023-02-13T07:47:47.114Z,1.29
2023-02-13T07:48:48.594Z,1.30
2023-02-13T07:49:50.302Z,1.29
2023-02-13T07:50:52.111Z,1.30
2023-02-13T07:51:53.526Z,1.35
2023-02-13T07:52:57.494Z,1.30
2023-02-13T07:53:59.101Z,1.25
2023-02-13T07:55:00.585Z,1.30
2023-02-13T07:56:06.756Z,1.45
2023-02-13T07:57:08.244Z,1.55
2023-02-13T07:58:09.683Z,1.57
2023-02-13T07:59:11.249Z,1.58
2023-02-13T08:00:13.403Z,1.62
2023-02-13T08:01:16.545Z,1.61
2023-02-13T08:02:17.942Z,1.64
2023-02-13T08:03:19.406Z,1.53
2023-02-13T08:04:20.874Z,1.57
2023-02-13T08:05:22.569Z,1.54
2023-02-13T08:06:24.368Z,1.55
2023-02-13T08:07:26.136Z,1.65
2023-02-13T08:08:27.610Z,1.73
2023-02-13T08:09:47.716Z,1.82
2023-02-13T08:11:09.452Z,1.84
2023-02-13T08:12:11.556Z,1.77
2023-02-13T08:13:14.838Z,1.84
2023-02-13T08:14:16.387Z,1.84
2023-02-13T08:15:18.012Z,1.83
2023-02-13T08:16:19.630Z,1.84
2023-02-13T08:17:21.278Z,1.86
2023-02-13T08:18:22.813Z,1.88
2023-02-13T08:19:24.635Z,1.99
2023-02-13T08:20:26.232Z,1.99
2023-02-13T08:21:27.702Z,2.05
2023-02-13T08:22:29.176Z,2.16
2023-02-13T08:23:31.006Z,2.14
2023-02-13T08:24:33.002Z,2.20
2023-02-13T08:25:34.554Z,2.26
2023-02-13T08:26:36.108Z,2.29
2023-02-13T08:27:38.578Z,2.24
2023-02-13T08:28:40.088Z,2.27
2023-02-13T08:29:41.779Z,2.25
2023-02-13T08:30:43.336Z,2.29
2023-02-13T08:31:45.046Z,2.33
2023-02-13T08:32:54.272Z,2.38
2023-02-13T08:33:57.518Z,2.28
2023-02-13T08:34:59.074Z,2.36
2023-02-13T08:36:03.496Z,2.34
2023-02-13T08:37:05.029Z,2.26
2023-02-13T08:38:06.805Z,2.30
2023-02-13T08:39:09.846Z,2.31
2023-02-13T08:40:11.746Z,2.42
2023-02-13T08:41:14.046Z,2.52
2023-02-13T08:42:16.338Z,2.56
2023-02-13T08:43:18.092Z,2.59
2023-02-13T08:44:19.556Z,2.61
2023-02-13T08:45:20.991Z,2.60
2023-02-13T08:46:22.790Z,2.63
2023-02-13T08:47:24.260Z,2.63
2023-02-13T08:48:27.142Z,2.70
2023-02-13T08:49:28.577Z,2.73
2023-02-13T08:50:30.181Z,2.68
2023-02-13T08:51:31.650Z,2.71
2023-02-13T08:52:33.476Z,2.71
2023-02-13T08:53:37.837Z,2.69
2023-02-13T08:54:39.342Z,2.70
2023-02-13T08:55:40.801Z,2.61
2023-02-13T08:56:43.221Z,2.62
2023-02-13T08:57:44.714Z,2.64
2023-02-13T08:58:50.122Z,2.43
2023-02-13T08:59:51.549Z,2.46
2023-02-13T09:00:53.027Z,2.49
2023-02-13T09:01:54.742Z,2.53
2023-02-13T09:03:01.319Z,2.56
2023-02-13T09:04:02.840Z,2.61
2023-02-13T09:05:04.510Z,2.57
2023-02-13T09:06:06.378Z,2.64
2023-02-13T09:07:07.915Z,2.67
2023-02-13T09:08:11.681Z,2.72
2023-02-13T09:09:13.329Z,2.56
2023-02-13T09:10:14.772Z,2.47
2023-02-13T09:11:16.326Z,2.51
2023-02-13T09:12:17.786Z,2.51
2023-02-13T09:13:19.243Z,2.53
2023-02-13T09:14:20.704Z,2.53
2023-02-13T09:15:22.215Z,2.57
2023-02-13T09:16:23.794Z,2.62
2023-02-13T09:17:25.286Z,2.63
2023-02-13T09:18:27.563Z,2.68
2023-02-13T09:19:28.979Z,2.66
2023-02-13T09:20:30.485Z,2.67
2023-02-13T09:21:31.917Z,2.75
2023-02-13T09:22:33.317Z,2.83
2023-02-13T09:23:40.389Z,2.90
2023-02-13T09:24:41.831Z,2.94
2023-02-13T09:25:43.266Z,2.97
2023-02-13T09:26:44.713Z,2.96
2023-02-13T09:27:46.210Z,2.97
2023-02-13T09:28:47.723Z,2.98
2023-02-13T09:29:49.337Z,2.97
2023-02-13T09:30:50.910Z,2.96
2023-02-13T09:31:53.264Z,2.95
2023-02-13T09:32:55.026Z,2.99
2023-02-13T09:33:56.552Z,3.05
2023-02-13T09:34:58.007Z,3.08
2023-02-13T09:35:59.619Z,3.12
2023-02-13T09:37:01.206Z,3.11
2023-02-13T09:38:02.713Z,3.14
2023-02-13T09:39:04.172Z,3.18
2023-02-13T09:40:07.560Z,3.12
2023-02-13T09:41:19.808Z,3.10
2023-02-13T09:42:26.496Z,3.09
2023-02-13T09:43:37.491Z,3.16
2023-02-13T09:44:43.399Z,3.23
2023-02-13T09:45:47.712Z,3.19
2023-02-13T09:46:49.313Z,3.10
2023-02-13T09:47:51.030Z,3.08
2023-02-13T09:48:56.195Z,3.18
2023-02-13T09:50:01.752Z,3.25
2023-02-13T09:51:04.538Z,3.33
2023-02-13T09:52:06.025Z,3.39
2023-02-13T09:53:07.822Z,3.40
2023-02-13T09:54:15.587Z,3.42
2023-02-13T09:55:20.496Z,3.44
2023-02-13T09:56:37.832Z,3.45
2023-02-13T09:57:54.473Z,3.56
2023-02-13T09:59:05.750Z,3.58
2023-02-13T10:00:21.336Z,3.57
2023-02-13T10:01:31.027Z,3.67
2023-02-13T10:02:51.959Z,3.71
2023-02-13T10:04:20.728Z,3.76
2023-02-13T10:05:47.113Z,3.82
2023-02-13T10:06:58.577Z,3.85
2023-02-13T10:08:04.104Z,3.93
2023-02-13T10:09:48.880Z,3.90
2023-02-13T10:11:29.964Z,3.83
2023-02-13T10:13:01.259Z,3.88
2023-02-13T10:14:16.142Z,3.95
2023-02-13T10:15:26.282Z,4.00
2023-02-13T10:16:35.657Z,4.05
2023-02-13T10:17:45.184Z,4.06
2023-02-13T10:18:55.531Z,4.01
2023-02-13T10:20:07.022Z,4.11
2023-02-13T10:21:10.174Z,4.11
2023-02-13T10:22:17.938Z,4.14
2023-02-13T10:23:26.329Z,4.16
2023-02-13T10:24:42.795Z,4.21
2023-02-13T10:25:52.496Z,4.31
2023-02-13T10:26:57.383Z,4.36
2023-02-13T10:28:10.669Z,4.41
2023-02-13T10:29:43.032Z,4.39
2023-02-13T10:31:11.148Z,4.45
2023-02-13T10:32:17.612Z,4.49
2023-02-13T10:33:26.220Z,4.61
2023-02-13T10:34:35.054Z,4.70
2023-02-13T10:35:38.478Z,4.65
2023-02-13T10:36:44.219Z,4.56
2023-02-13T10:37:51.127Z,4.41
2023-02-13T10:39:17.360Z,4.30
2023-02-13T10:40:19.589Z,4.42
2023-02-13T10:41:35.353Z,4.43
2023-02-13T10:43:09.799Z,4.48
2023-02-13T10:44:41.954Z,4.57
2023-02-13T10:46:31.567Z,4.63
2023-02-13T10:47:51.856Z,4.84
2023-02-13T10:49:26.686Z,4.84
2023-02-13T10:50:56.937Z,4.75
2023-02-13T10:52:15.848Z,4.73
2023-02-13T10:53:29.226Z,4.83
2023-02-13T10:55:07.676Z,4.96
2023-02-13T10:56:31.997Z,4.99
2023-02-13T10:58:01.747Z,4.96
2023-02-13T10:59:38.100Z,5.02
2023-02-13T11:01:06.916Z,5.16
2023-02-13T11:02:25.365Z,5.19
2023-02-13T11:03:28.878Z,5.21
2023-02-13T11:04:30.789Z,5.21
2023-02-13T11:05:38.068Z,5.19
2023-02-13T11:06:54.760Z,5.25
2023-02-13T11:07:57.667Z,5.23
2023-02-13T11:08:59.455Z,5.27
2023-02-13T11:10:13.177Z,5.32
2023-02-13T11:11:32.040Z,5.36
2023-02-13T11:12:34.287Z,5.39
2023-02-13T11:13:35.751Z,5.42
2023-02-13T11:14:38.636Z,5.49
2023-02-13T11:15:40.302Z,5.59
2023-02-13T11:16:58.287Z,5.67
2023-02-13T11:18:11.248Z,5.59
2023-02-13T11:19:26.383Z,5.72
2023-02-13T11:20:46.770Z,5.78
2023-02-13T11:21:54.199Z,5.74
2023-02-13T11:22:57.508Z,5.68
2023-02-13T11:23:59.020Z,5.68
2023-02-13T11:25:06.398Z,5.67
2023-02-13T11:26:12.023Z,5.69
2023-02-13T11:27:14.119Z,5.68
2023-02-13T11:28:20.933Z,5.65
2023-02-13T11:29:26.833Z,5.67
2023-02-13T11:30:35.764Z,5.72
2023-02-13T11:31:38.247Z,5.78
2023-02-13T11:32:39.873Z,5.82
2023-02-13T11:33:42.222Z,5.89
2023-02-13T11:34:44.242Z,5.91
2023-02-13T11:35:46.822Z,5.95
2023-02-13T11:36:53.135Z,5.95
2023-02-13T11:38:24.527Z,5.93
2023-02-13T11:39:26.940Z,5.97
2023-02-13T11:40:32.329Z,6.03
2023-02-13T11:41:43.152Z,6.12
2023-02-13T11:42:46.781Z,6.22
2023-02-13T11:43:53.480Z,6.27
2023-02-13T11:44:59.733Z,6.32
2023-02-13T11:46:25.504Z,6.41
2023-02-13T11:47:34.913Z,6.44
2023-02-13T11:48:36.527Z,6.37
2023-02-13T11:49:39.564Z,6.34
2023-02-13T11:50:41.276Z,6.27
2023-02-13T11:52:10.742Z,6.33
2023-02-13T11:53:39.499Z,6.35
2023-02-13T11:54:44.796Z,6.36
2023-02-13T11:56:02.865Z,6.36
2023-02-13T11:57:21.871Z,6.43
2023-02-13T11:58:25.810Z,6.49
2023-02-13T11:59:31.990Z,6.55
2023-02-13T12:00:40.271Z,6.62
2023-02-13T12:01:43.243Z,6.71
2023-02-13T12:02:48.359Z,6.78
2023-02-13T12:04:08.963Z,6.82
2023-02-13T12:05:22.576Z,6.89
2023-02-13T12:06:24.047Z,6.93
2023-02-13T12:07:27.881Z,6.98
2023-02-13T12:08:31.142Z,6.92
2023-02-13T12:09:32.775Z,6.92
2023-02-13T12:10:38.210Z,6.96
2023-02-13T12:11:48.450Z,7.01
2023-02-13T12:12:56.016Z,6.96
2023-02-13T12:13:58.125Z,7.04
2023-02-13T12:15:03.717Z,7.04
2023-02-13T12:16:31.487Z,7.11
2023-02-13T12:17:35.230Z,7.12
2023-02-13T12:18:49.181Z,7.16
2023-02-13T12:19:51.645Z,7.29
2023-02-13T12:21:31.170Z,7.36
2023-02-13T12:22:39.978Z,7.37
2023-02-13T12:23:53.612Z,7.45
2023-02-13T12:25:24.948Z,7.52
2023-02-13T12:26:39.281Z,7.64
2023-02-13T12:27:43.215Z,7.76
2023-02-13T12:28:52.027Z,7.93
2023-02-13T12:30:01.766Z,8.21
2023-02-13T12:31:28.073Z,8.53
2023-02-13T12:32:55.384Z,8.83
2023-02-13T12:34:15.640Z,9.06
2023-02-13T12:35:35.319Z,9.19
2023-02-13T12:36:46.071Z,9.15
2023-02-13T12:38:00.347Z,9.17
2023-02-13T12:39:23.621Z,9.18
2023-02-13T12:40:31.195Z,9.19
2023-02-13T12:41:35.555Z,9.18
2023-02-13T12:42:42.783Z,9.13
2023-02-13T12:43:46.967Z,9.28
2023-02-13T12:45:10.177Z,9.46
2023-02-13T12:46:26.430Z,9.56
2023-02-13T12:47:39.290Z,9.73
2023-02-13T12:49:01.868Z,10.09
2023-02-13T12:50:24.798Z,10.53
2023-02-13T12:51:49.750Z,10.61
2023-02-13T12:53:02.981Z,10.68
2023-02-13T12:54:30.179Z,10.60
2023-02-13T12:55:45.752Z,10.64
2023-02-13T12:57:05.348Z,10.74
2023-02-13T12:58:28.557Z,10.68
2023-02-13T12:59:43.541Z,10.76
2023-02-13T13:00:59.476Z,10.82
2023-02-13T13:02:39.892Z,10.98
2023-02-13T13:03:51.335Z,10.73
2023-02-13T13:05:23.302Z,11.06
2023-02-13T13:06:52.041Z,11.43
2023-02-13T13:07:56.406Z,11.72
2023-02-13T13:09:13.187Z,12.03
2023-02-13T13:10:28.177Z,12.32
2023-02-13T13:12:01.781Z,12.27
2023-02-13T13:13:12.105Z,12.40
2023-02-13T13:14:49.105Z,12.44
2023-02-13T13:16:05.950Z,12.47
2023-02-13T13:17:29.331Z,12.47
2023-02-13T13:18:46.486Z,12.40
2023-02-13T13:20:06.566Z,12.32
2023-02-13T13:21:32.922Z,12.28
2023-02-13T13:22:58.873Z,12.29
2023-02-13T13:24:15.223Z,12.16
2023-02-13T13:25:21.377Z,12.10
2023-02-13T13:26:43.257Z,12.06
2023-02-13T13:27:49.448Z,12.04
2023-02-13T13:28:55.009Z,12.12
2023-02-13T13:30:13.402Z,12.20
2023-02-13T13:31:16.455Z,12.22
2023-02-13T13:32:21.425Z,12.29
2023-02-13T13:33:25.545Z,12.11
2023-02-13T13:34:27.891Z,12.30
2023-02-13T13:35:30.625Z,12.41
2023-02-13T13:36:46.595Z,12.51
2023-02-13T13:38:02.564Z,12.67
2023-02-13T13:39:15.375Z,12.88
2023-02-13T13:40:30.281Z,13.04
2023-02-13T13:41:34.411Z,13.16
2023-02-13T13:42:43.726Z,13.21
2023-02-13T13:44:16.375Z,13.33
2023-02-13T13:45:44.151Z,13.33
2023-02-13T13:47:10.725Z,13.59
2023-02-13T13:48:23.967Z,13.48
2023-02-13T13:49:52.725Z,13.56
2023-02-13T13:50:56.503Z,13.75
2023-02-13T13:52:23.176Z,13.95
2023-02-13T13:53:25.554Z,14.04
2023-02-13T13:54:34.508Z,14.20
2023-02-13T13:55:48.568Z,14.16
2023-02-13T13:56:52.782Z,13.71
2023-02-13T13:57:57.223Z,13.72
2023-02-13T13:58:58.764Z,13.72
2023-02-13T14:00:25.396Z,13.70
2023-02-13T14:01:31.201Z,13.89
2023-02-13T14:02:46.476Z,14.21
2023-02-13T14:03:50.853Z,14.19
2023-02-13T14:05:13.680Z,14.22
2023-02-13T14:06:20.954Z,14.02
2023-02-13T14:07:24.516Z,14.12
2023-02-13T14:08:41.254Z,14.18
2023-02-13T14:09:44.226Z,14.30
2023-02-13T14:10:51.610Z,14.46
2023-02-13T14:11:53.678Z,14.83
2023-02-13T14:12:57.895Z,14.99
2023-02-13T14:14:00.286Z,15.21
2023-02-13T14:15:01.792Z,15.42
2023-02-13T14:16:05.125Z,15.52
2023-02-13T14:17:15.348Z,15.44
2023-02-13T14:18:16.871Z,15.57
2023-02-13T14:19:29.213Z,15.74
2023-02-13T14:20:38.783Z,15.89
2023-02-13T14:21:40.487Z,15.65
2023-02-13T14:22:42.146Z,15.36
2023-02-13T14:23:50.396Z,15.18
2023-02-13T14:25:06.070Z,15.10
2023-02-13T14:26:15.106Z,15.13
2023-02-13T14:27:23.674Z,15.06
2023-02-13T14:28:27.472Z,14.98
2023-02-13T14:29:34.269Z,14.87
2023-02-13T14:30:39.641Z,14.77
2023-02-13T14:31:50.931Z,14.78
2023-02-13T14:32:53.152Z,14.94
2023-02-13T14:34:04.347Z,15.18
2023-02-13T14:35:19.092Z,15.37
2023-02-13T14:36:23.195Z,15.55
2023-02-13T14:37:31.381Z,15.74
2023-02-13T14:38:34.429Z,15.73
2023-02-13T14:39:36.228Z,15.76
2023-02-13T14:40:51.951Z,15.68
2023-02-13T14:41:56.033Z,15.86
2023-02-13T14:43:01.324Z,15.88
2023-02-13T14:44:03.092Z,15.85
2023-02-13T14:45:11.786Z,15.84
2023-02-13T14:46:38.014Z,15.72
2023-02-13T14:47:44.157Z,15.62
2023-02-13T14:49:12.004Z,15.53
2023-02-13T14:50:21.784Z,15.59
2023-02-13T14:51:46.988Z,15.80
2023-02-13T14:52:49.655Z,15.60
2023-02-13T14:53:54.493Z,15.50
2023-02-13T14:55:02.820Z,15.58
2023-02-13T14:56:13.014Z,15.57
2023-02-13T14:57:29.729Z,15.66
2023-02-13T14:58:42.290Z,15.71